Terminal Aerodrome Forecast
Issued by NWS

Home | Current Version | Previous Version | Text Only | Print | Product List | Glossary On
Versions: 1 2 3 4 5 6 7 8 9 10 11 12 13 14 15 16 17 18 19 20
000
FTUS43 KSGF 161700
TAFJLN
TAF
KJLN 161728Z 1618/1718 05005KT 6SM BR OVC008
     FM161930 07005KT P6SM SCT008 BKN015
     FM162300 12005KT P6SM BKN025
     FM170900 15005KT 6SM BR OVC025
      TEMPO 1710/1714 5SM -TSRA OVC015CB=

USA.gov is the U.S. government's official web portal to all federal, state and local government web resources and services.